Alyeska Resort
Max's Hourly Weather Roundup
ALYESKA_MAX 4/27/2015
Click Here for Graph

        DATE  TIME   Air  Wind  Wind  Wind  BATT   Rel
                    Temp   Spd   Dir  Gust  Volt  Hum%
                      F   MPH   AVG   MPH   AVG   AVG

   4/27/2015 02:00    33     2   120     5 12.90    81
   4/27/2015 01:00    34     2   146     4 12.92    73
   4/26/2015 24:00    36     2    90     4 12.96    67
   4/26/2015 23:00    36     2   178     4 13.04    69
   4/26/2015 22:00    37     2   163     5 13.24    66
   4/26/2015 21:00    38     4   126     7 13.89    64
   4/26/2015 20:00    41     2   183     5 13.89    59
   4/26/2015 19:00    42     1   203     3 13.87    53
   4/26/2015 18:00    40     3   185     5 13.87    55
   4/26/2015 17:00    42     2   198     4 13.85    46
   4/26/2015 16:00    38     7   108    12 13.84    56
   4/26/2015 15:00    38     5   173    10 13.84    52
   4/26/2015 14:00    39     3    90    11 13.80    49
   4/26/2015 13:00    39     4   224     8 13.70    44
   4/26/2015 12:00    37     4   236    10 13.68    46
   4/26/2015 11:00    37     2   176     7 13.65    46
   4/26/2015 10:00    35     4    51    11 13.65    47
   4/26/2015 09:00    34    10   236    16 13.71    52
   4/26/2015 08:00    33    11          16 12.97    54
   4/26/2015 07:00    33     9   290    13 12.80    56
   4/26/2015 06:00    33    12   117    19 12.81    58
   4/26/2015 05:00    33    13    47    21 12.82    58
   4/26/2015 04:00    34    16    76    26 12.84    60
   4/26/2015 03:00    34    18    78    28 12.86    61


Click Here for Graph